createdAt,value
2018-08-09T00:01:15.130Z,13.93
2018-08-09T00:04:18.960Z,13.62
2018-08-09T00:07:22.746Z,14.28
2018-08-09T00:10:26.380Z,13.13
2018-08-09T00:13:30.015Z,16.00
2018-08-09T00:16:33.648Z,14.53
2018-08-09T00:19:37.280Z,10.75
2018-08-09T00:22:41.116Z,11.55
2018-08-09T00:25:44.700Z,18.65
2018-08-09T00:28:48.332Z,13.72
2018-08-09T00:31:51.962Z,12.15
2018-08-09T00:34:55.840Z,14.93
2018-08-09T00:37:59.669Z,15.05
2018-08-09T00:41:03.313Z,15.95
2018-08-09T00:44:06.929Z,13.03
2018-08-09T00:47:10.591Z,15.38
2018-08-09T00:50:14.398Z,14.33
2018-08-09T00:53:18.038Z,16.52
2018-08-09T00:56:21.714Z,18.73
2018-08-09T00:59:25.465Z,15.50
2018-08-09T01:02:29.054Z,12.65
2018-08-09T01:05:32.688Z,12.20
2018-08-09T01:08:36.322Z,15.68
2018-08-09T01:11:40.013Z,16.82
2018-08-09T01:14:43.647Z,16.15
2018-08-09T01:17:47.713Z,12.05
2018-08-09T01:20:51.412Z,15.90
2018-08-09T01:23:55.030Z,14.20
2018-08-09T01:26:58.640Z,11.12
2018-08-09T01:30:02.354Z,13.83
2018-08-09T01:33:06.264Z,14.90
2018-08-09T01:36:09.907Z,14.23
2018-08-09T01:39:14.265Z,10.68
2018-08-09T01:42:29.645Z,19.98
2018-08-09T01:45:33.266Z,10.98
2018-08-09T01:48:36.961Z,13.32
2018-08-09T01:51:47.306Z,13.58
2018-08-09T01:54:51.021Z,14.75
2018-08-09T01:57:54.624Z,12.55
2018-08-09T02:00:58.282Z,14.63
2018-08-09T02:04:01.888Z,12.10
2018-08-09T02:07:06.027Z,16.35
2018-08-09T02:10:09.647Z,14.63
2018-08-09T02:13:13.303Z,16.80
2018-08-09T02:16:16.927Z,15.25
2018-08-09T02:19:20.565Z,16.10
2018-08-09T02:22:24.199Z,14.47
2018-08-09T02:25:27.840Z,18.45
2018-08-09T02:28:31.467Z,18.80
2018-08-09T02:31:35.111Z,16.67
2018-08-09T02:34:38.860Z,16.37
2018-08-09T02:37:42.670Z,19.10
2018-08-09T02:40:46.300Z,17.35
2018-08-09T02:43:49.947Z,20.45
2018-08-09T02:46:53.624Z,17.50
2018-08-09T02:49:57.207Z,19.95
2018-08-09T02:53:00.827Z,17.45
2018-08-09T02:56:04.457Z,19.98
2018-08-09T02:59:08.488Z,19.87
2018-08-09T03:02:12.141Z,19.42
2018-08-09T03:05:15.891Z,21.33
2018-08-09T03:08:19.557Z,20.10
2018-08-09T03:11:23.355Z,18.27
2018-08-09T03:14:27.052Z,22.05
2018-08-09T03:17:30.991Z,17.90
2018-08-09T03:20:34.622Z,20.93
2018-08-09T03:23:38.283Z,17.57
2018-08-09T03:26:41.919Z,22.05
2018-08-09T03:29:45.639Z,22.70
2018-08-09T03:32:49.442Z,18.07
2018-08-09T03:35:53.131Z,20.15
2018-08-09T03:38:56.781Z,18.98
2018-08-09T03:42:00.426Z,21.80
2018-08-09T03:45:04.185Z,22.22
2018-08-09T03:48:07.813Z,20.17
2018-08-09T03:51:11.450Z,21.27
2018-08-09T03:54:15.268Z,18.73
2018-08-09T03:57:19.090Z,21.03
2018-08-09T04:00:22.711Z,22.98
2018-08-09T04:03:26.388Z,23.07
2018-08-09T04:06:30.008Z,22.25
2018-08-09T04:09:33.629Z,20.23
2018-08-09T04:12:37.546Z,20.15
2018-08-09T04:15:41.201Z,20.27
2018-08-09T04:18:45.004Z,22.48
2018-08-09T04:21:48.653Z,20.72
2018-08-09T04:24:53.787Z,18.67
2018-08-09T04:27:57.741Z,20.57
2018-08-09T04:31:01.373Z,22.70
2018-08-09T04:34:05.051Z,17.17
2018-08-09T04:37:08.880Z,17.37
2018-08-09T04:40:12.671Z,18.45
2018-08-09T04:43:16.585Z,21.25
2018-08-09T04:46:20.234Z,20.65
2018-08-09T04:49:23.927Z,21.27
2018-08-09T04:52:27.588Z,17.92
2018-08-09T04:55:31.254Z,15.23
2018-08-09T04:58:34.998Z,13.83
2018-08-09T05:01:38.619Z,18.50
2018-08-09T05:04:42.263Z,14.80
2018-08-09T05:07:46.148Z,13.90
2018-08-09T05:10:50.593Z,12.75
2018-08-09T05:13:54.206Z,12.18
2018-08-09T05:16:57.927Z,16.12
2018-08-09T05:20:01.613Z,13.28
2018-08-09T05:23:05.571Z,9.88
2018-08-09T05:26:09.239Z,13.15
2018-08-09T05:29:12.910Z,13.13
2018-08-09T05:32:16.545Z,15.80
2018-08-09T05:35:20.184Z,13.50
2018-08-09T05:38:23.840Z,14.15
2018-08-09T05:41:27.486Z,16.17
2018-08-09T05:44:31.210Z,13.28
2018-08-09T05:47:34.871Z,15.95
2018-08-09T05:50:38.775Z,13.22
2018-08-09T05:53:42.419Z,12.95
2018-08-09T05:56:46.048Z,13.83
2018-08-09T05:59:49.686Z,11.00
2018-08-09T06:02:53.338Z,10.93
2018-08-09T06:05:56.999Z,12.13
2018-08-09T06:09:00.611Z,13.25
2018-08-09T06:12:04.269Z,10.72
2018-08-09T06:15:07.968Z,12.23
2018-08-09T06:18:11.700Z,12.47
2018-08-09T06:21:15.305Z,13.38
2018-08-09T06:24:18.941Z,10.00
2018-08-09T06:27:22.554Z,9.68
2018-08-09T06:30:26.184Z,9.98
2018-08-09T06:33:29.858Z,9.30
2018-08-09T06:36:33.502Z,9.78
2018-08-09T06:39:37.123Z,8.18
2018-08-09T06:42:41.578Z,10.72
2018-08-09T06:45:45.283Z,10.50
2018-08-09T06:48:48.969Z,12.95
2018-08-09T06:51:52.583Z,13.38
2018-08-09T06:54:56.219Z,7.37
2018-08-09T06:57:59.839Z,9.40
2018-08-09T07:01:03.493Z,11.33
2018-08-09T07:04:07.133Z,10.05
2018-08-09T07:07:10.762Z,10.20
2018-08-09T07:10:14.442Z,13.90
2018-08-09T07:13:18.077Z,11.88
2018-08-09T07:16:21.773Z,10.95
2018-08-09T07:19:25.409Z,11.12
2018-08-09T07:22:29.043Z,9.43
2018-08-09T07:25:32.750Z,11.53
2018-08-09T07:28:36.419Z,11.93
2018-08-09T07:31:40.015Z,14.98
2018-08-09T07:34:43.621Z,8.70
2018-08-09T07:37:47.326Z,12.13
2018-08-09T07:40:51.006Z,13.35
2018-08-09T07:43:54.640Z,11.83
2018-08-09T07:46:58.265Z,12.30
2018-08-09T07:50:01.899Z,11.57
2018-08-09T07:53:05.518Z,12.20
2018-08-09T07:56:09.467Z,10.63
2018-08-09T07:59:13.081Z,11.70
2018-08-09T08:02:16.720Z,9.73
2018-08-09T08:05:20.334Z,10.93
2018-08-09T08:08:24.256Z,13.25
2018-08-09T08:11:27.820Z,10.90
2018-08-09T08:14:31.506Z,12.73
2018-08-09T08:17:35.150Z,10.88
2018-08-09T08:20:38.845Z,9.53
2018-08-09T08:23:42.539Z,11.38
2018-08-09T08:26:46.274Z,11.28
2018-08-09T08:29:49.849Z,14.20
2018-08-09T08:32:55.723Z,10.95
2018-08-09T08:35:59.340Z,8.60
2018-08-09T08:39:02.976Z,10.58
2018-08-09T08:42:06.591Z,13.43
2018-08-09T08:45:12.092Z,11.63
2018-08-09T08:48:15.777Z,12.28
2018-08-09T08:51:19.497Z,12.05
2018-08-09T08:54:23.101Z,12.20
2018-08-09T08:57:26.752Z,13.28
2018-08-09T09:00:31.116Z,10.48
2018-08-09T09:03:34.982Z,10.40
2018-08-09T09:06:38.624Z,11.22
2018-08-09T09:09:42.258Z,9.60
2018-08-09T09:12:45.884Z,11.10
2018-08-09T09:15:49.551Z,10.32
2018-08-09T09:18:53.167Z,8.93
2018-08-09T09:21:56.834Z,10.00
2018-08-09T09:25:00.466Z,12.20
2018-08-09T09:28:04.318Z,10.13
2018-08-09T09:31:08.114Z,11.55
2018-08-09T09:34:11.762Z,13.43
2018-08-09T09:37:15.466Z,12.35
2018-08-09T09:40:19.223Z,11.85
2018-08-09T09:43:22.831Z,10.32
2018-08-09T09:46:26.478Z,12.33
2018-08-09T09:49:30.231Z,10.40
2018-08-09T09:52:33.963Z,8.75
2018-08-09T09:55:37.591Z,9.75
2018-08-09T09:58:41.361Z,14.68
2018-08-09T10:01:45.054Z,9.20
2018-08-09T10:04:48.647Z,16.60
2018-08-09T10:07:52.541Z,15.80
2018-08-09T10:10:56.259Z,10.28
2018-08-09T10:13:59.882Z,13.43
2018-08-09T10:17:03.507Z,10.63
2018-08-09T10:20:07.764Z,10.78
2018-08-09T10:23:11.423Z,10.08
2018-08-09T10:26:15.038Z,11.05
2018-08-09T10:29:18.684Z,12.15
2018-08-09T10:32:22.382Z,12.33
2018-08-09T10:35:26.049Z,9.48
2018-08-09T10:38:29.635Z,14.35
2018-08-09T10:41:33.515Z,11.73
2018-08-09T10:44:37.154Z,10.15
2018-08-09T10:47:40.855Z,14.10
2018-08-09T10:50:44.509Z,12.93
2018-08-09T10:53:48.148Z,13.45
2018-08-09T10:56:51.781Z,14.45
2018-08-09T10:59:55.437Z,11.15
2018-08-09T11:02:59.091Z,10.90
2018-08-09T11:06:02.755Z,11.90
2018-08-09T11:09:08.680Z,16.00
2018-08-09T11:12:12.443Z,15.23
2018-08-09T11:15:16.224Z,12.00
2018-08-09T11:18:19.869Z,12.55
2018-08-09T11:21:23.497Z,16.62
2018-08-09T11:24:27.159Z,11.75
2018-08-09T11:27:30.787Z,12.25
2018-08-09T11:30:34.443Z,15.58
2018-08-09T11:33:38.083Z,13.28
2018-08-09T11:36:41.732Z,12.13
2018-08-09T11:39:45.387Z,14.35
2018-08-09T11:42:49.389Z,13.43
2018-08-09T11:45:53.030Z,13.18
2018-08-09T11:48:56.658Z,13.15
2018-08-09T11:52:00.295Z,11.60
2018-08-09T11:55:05.187Z,14.23
2018-08-09T11:58:08.803Z,12.40
2018-08-09T12:02:41.717Z,17.70
2018-08-09T12:05:45.420Z,15.13
2018-08-09T12:08:49.090Z,10.35
2018-08-09T12:12:56.052Z,13.25
2018-08-09T12:15:59.698Z,8.73
2018-08-09T12:19:03.683Z,10.82
2018-08-09T12:22:07.411Z,14.90
2018-08-09T12:25:11.095Z,13.53
2018-08-09T12:28:14.762Z,13.88
2018-08-09T12:31:18.384Z,14.95
2018-08-09T12:34:22.027Z,13.45
2018-08-09T12:37:25.675Z,16.35
2018-08-09T12:40:29.331Z,12.55
2018-08-09T12:43:32.985Z,13.00
2018-08-09T12:46:36.656Z,11.83
2018-08-09T12:49:40.336Z,9.85
2018-08-09T12:52:44.593Z,9.38
2018-08-09T12:55:48.219Z,13.43
2018-08-09T12:58:51.860Z,11.95
2018-08-09T13:01:55.527Z,12.30
2018-08-09T13:04:59.269Z,14.45
2018-08-09T13:08:02.886Z,13.03
2018-08-09T13:11:06.557Z,9.63
2018-08-09T13:14:10.162Z,10.63
2018-08-09T13:17:13.798Z,12.15
2018-08-09T13:20:19.077Z,14.18
2018-08-09T13:23:22.758Z,15.72
2018-08-09T13:26:26.385Z,11.48
2018-08-09T13:29:30.027Z,8.88
2018-08-09T13:32:33.652Z,11.22
2018-08-09T13:35:37.306Z,16.40
2018-08-09T13:38:40.946Z,15.38
2018-08-09T13:41:45.523Z,16.12
2018-08-09T13:44:49.260Z,13.32
2018-08-09T13:47:53.214Z,12.45
2018-08-09T13:50:56.920Z,19.75
2018-08-09T13:54:00.564Z,12.90
2018-08-09T13:57:04.191Z,11.73
2018-08-09T14:00:09.855Z,14.13
2018-08-09T14:03:13.511Z,12.65
2018-08-09T14:06:17.186Z,15.83
2018-08-09T14:09:20.811Z,10.65
2018-08-09T14:12:24.516Z,11.45
2018-08-09T14:15:28.142Z,14.80
2018-08-09T14:18:31.782Z,14.68
2018-08-09T14:21:35.459Z,12.00
2018-08-09T14:24:39.175Z,14.10
2018-08-09T14:27:42.804Z,14.85
2018-08-09T14:30:46.462Z,15.58
2018-08-09T14:33:50.552Z,15.98
2018-08-09T14:36:54.187Z,13.93
2018-08-09T14:39:57.805Z,15.78
2018-08-09T14:43:01.689Z,11.50
2018-08-09T14:46:05.419Z,13.62
2018-08-09T14:49:09.362Z,10.93
2018-08-09T14:52:13.014Z,12.07
2018-08-09T14:55:16.782Z,16.02
2018-08-09T14:58:20.802Z,14.00
2018-08-09T15:01:24.503Z,11.00
2018-08-09T15:04:28.131Z,13.93
2018-08-09T15:07:31.773Z,15.70
2018-08-09T15:10:35.469Z,13.78
2018-08-09T15:13:39.133Z,15.18
2018-08-09T15:16:42.737Z,13.38
2018-08-09T15:19:46.475Z,11.85
2018-08-09T15:22:50.146Z,12.58
2018-08-09T15:25:53.752Z,12.43
2018-08-09T15:28:57.717Z,10.15
2018-08-09T15:32:01.568Z,13.43
2018-08-09T15:35:05.495Z,12.28
2018-08-09T15:38:09.300Z,15.55
2018-08-09T15:41:12.883Z,12.93
2018-08-09T15:44:16.562Z,14.90
2018-08-09T15:47:20.444Z,11.78
2018-08-09T15:50:24.067Z,12.00
2018-08-09T15:53:27.703Z,12.55
2018-08-09T15:56:31.351Z,13.43
2018-08-09T15:59:34.973Z,13.50
2018-08-09T16:02:38.744Z,11.93
2018-08-09T16:05:42.499Z,12.75
2018-08-09T16:08:46.562Z,10.43
2018-08-09T16:11:50.211Z,14.85
2018-08-09T16:14:53.984Z,9.85
2018-08-09T16:17:57.622Z,10.38
2018-08-09T16:21:01.340Z,8.83
2018-08-09T16:24:05.384Z,11.12
2018-08-09T16:27:09.189Z,10.48
2018-08-09T16:30:16.146Z,10.90
2018-08-09T16:33:19.911Z,14.80
2018-08-09T16:36:23.675Z,11.55
2018-08-09T16:39:27.386Z,10.68
2018-08-09T16:42:31.089Z,10.70
2018-08-09T16:45:34.831Z,9.55
2018-08-09T16:48:38.461Z,12.37
2018-08-09T16:51:42.131Z,10.30
2018-08-09T16:54:45.804Z,10.38
2018-08-09T16:57:49.563Z,12.25
2018-08-09T17:00:53.180Z,9.00
2018-08-09T17:03:56.894Z,13.68
2018-08-09T17:07:00.530Z,13.20
2018-08-09T17:10:04.896Z,11.48
2018-08-09T17:13:08.594Z,11.63
2018-08-09T17:16:12.247Z,10.93
2018-08-09T17:19:16.295Z,12.50
2018-08-09T17:22:19.947Z,12.33
2018-08-09T17:25:23.565Z,14.80
2018-08-09T17:28:27.258Z,9.53
2018-08-09T17:31:30.915Z,12.23
2018-08-09T17:34:34.600Z,13.15
2018-08-09T17:37:38.255Z,8.90
2018-08-09T17:40:41.907Z,12.40
2018-08-09T17:43:45.544Z,10.13
2018-08-09T17:46:49.225Z,12.37
2018-08-09T17:49:53.203Z,11.55
2018-08-09T17:52:58.786Z,10.95
2018-08-09T17:56:02.416Z,12.03
2018-08-09T17:59:06.128Z,10.05
2018-08-09T18:02:09.740Z,12.07
2018-08-09T18:05:13.451Z,11.53
2018-08-09T18:08:17.077Z,13.40
2018-08-09T18:11:20.711Z,13.78
2018-08-09T18:14:24.469Z,15.95
2018-08-09T18:17:28.394Z,14.47
2018-08-09T18:20:33.759Z,9.18
2018-08-09T18:23:37.382Z,9.88
2018-08-09T18:26:41.010Z,15.10
2018-08-09T18:29:44.652Z,15.45
2018-08-09T18:32:48.267Z,17.35
2018-08-09T18:35:51.912Z,14.87
2018-08-09T18:38:55.651Z,21.25
2018-08-09T18:41:59.356Z,16.05
2018-08-09T18:45:03.157Z,12.68
2018-08-09T18:48:06.812Z,16.20
2018-08-09T18:51:10.519Z,14.05
2018-08-09T18:54:14.169Z,19.00
2018-08-09T18:57:17.798Z,15.10
2018-08-09T19:00:26.152Z,13.70
2018-08-09T19:03:29.826Z,12.05
2018-08-09T19:06:33.466Z,15.03
2018-08-09T19:09:37.120Z,15.75
2018-08-09T19:12:41.078Z,20.55
2018-08-09T19:15:44.753Z,14.15
2018-08-09T19:18:48.396Z,14.50
2018-08-09T19:21:52.356Z,12.55
2018-08-09T19:24:56.937Z,12.78
2018-08-09T19:28:00.558Z,15.28
2018-08-09T19:31:04.217Z,12.18
2018-08-09T19:34:07.838Z,15.05
2018-08-09T19:37:11.506Z,15.63
2018-08-09T19:40:16.983Z,11.95
2018-08-09T19:43:20.699Z,9.73
2018-08-09T19:46:24.421Z,10.43
2018-08-09T19:49:28.040Z,14.93
2018-08-09T19:52:31.653Z,13.55
2018-08-09T19:55:35.360Z,15.78
2018-08-09T19:58:39.119Z,17.27
2018-08-09T20:01:42.781Z,20.23
2018-08-09T20:04:46.431Z,23.32
2018-08-09T20:07:50.099Z,17.90
2018-08-09T20:10:53.717Z,24.35
2018-08-09T20:13:57.446Z,19.35
2018-08-09T20:17:01.097Z,15.78
2018-08-09T20:20:05.382Z,16.77
2018-08-09T20:23:09.235Z,18.77
2018-08-09T20:26:12.888Z,15.23
2018-08-09T20:29:16.532Z,17.92
2018-08-09T20:32:20.175Z,16.97
2018-08-09T20:35:24.367Z,17.98
2018-08-09T20:38:28.018Z,12.88
2018-08-09T20:41:31.775Z,19.00
2018-08-09T20:44:35.466Z,10.30
2018-08-09T20:47:39.133Z,14.87
2018-08-09T20:50:43.312Z,22.58
2018-08-09T20:53:46.954Z,15.88
2018-08-09T20:56:50.609Z,13.18
2018-08-09T20:59:54.210Z,20.30
2018-08-09T21:02:59.146Z,22.40
2018-08-09T21:06:02.771Z,17.35
2018-08-09T21:09:07.903Z,17.73
2018-08-09T21:12:11.578Z,25.60
2018-08-09T21:15:15.554Z,17.12
2018-08-09T21:18:19.141Z,18.45
2018-08-09T21:21:22.803Z,17.62
2018-08-09T21:24:26.566Z,15.88
2018-08-09T21:27:30.247Z,17.00
2018-08-09T21:30:33.883Z,16.40
2018-08-09T21:33:37.625Z,18.75
2018-08-09T21:36:41.592Z,17.92
2018-08-09T21:39:45.225Z,18.77
2018-08-09T21:42:48.838Z,16.27
2018-08-09T21:45:52.538Z,20.20
2018-08-09T21:48:56.156Z,15.77
2018-08-09T21:51:59.822Z,22.40
2018-08-09T21:55:03.505Z,22.05
2018-08-09T21:58:07.235Z,20.90
2018-08-09T22:01:12.276Z,15.30
2018-08-09T22:04:16.115Z,15.03
2018-08-09T22:07:25.361Z,13.30
2018-08-09T22:10:34.729Z,17.52
2018-08-09T22:13:43.815Z,14.63
2018-08-09T22:16:52.966Z,15.83
2018-08-09T22:20:02.102Z,15.78
2018-08-09T22:23:05.795Z,23.52
2018-08-09T22:26:10.048Z,21.68
2018-08-09T22:29:13.719Z,18.50
2018-08-09T22:32:17.408Z,17.92
2018-08-09T22:35:21.068Z,12.90
2018-08-09T22:38:24.714Z,15.23
2018-08-09T22:41:28.367Z,21.20
2018-08-09T22:44:32.020Z,16.53
2018-08-09T22:47:35.703Z,15.80
2018-08-09T22:50:39.316Z,15.00
2018-08-09T22:53:42.962Z,16.90
2018-08-09T22:56:46.651Z,23.40
2018-08-09T22:59:50.290Z,17.17
2018-08-09T23:02:53.927Z,14.17
2018-08-09T23:05:57.712Z,16.60
2018-08-09T23:09:01.363Z,16.25
2018-08-09T23:12:05.024Z,18.83
2018-08-09T23:28:54.619Z,14.57
2018-08-09T23:31:58.240Z,16.97
2018-08-09T23:35:01.982Z,17.00
2018-08-09T23:38:05.574Z,15.13
2018-08-09T23:41:09.223Z,15.33
2018-08-09T23:44:12.861Z,15.23
2018-08-09T23:47:16.526Z,12.70
2018-08-09T23:50:20.167Z,15.83
2018-08-09T23:53:23.815Z,18.07
2018-08-09T23:56:27.744Z,17.37
2018-08-09T23:59:31.417Z,12.90
